createdAt,value
2017-10-21T00:01:24.102Z,12.60
2017-10-21T00:03:51.783Z,12.60
2017-10-21T00:06:19.401Z,12.60
2017-10-21T00:08:47.024Z,12.60
2017-10-21T00:11:14.716Z,12.50
2017-10-21T00:13:42.350Z,12.40
2017-10-21T00:16:10.960Z,12.40
2017-10-21T00:18:38.672Z,12.20
2017-10-21T00:21:06.306Z,12.30
2017-10-21T00:23:33.954Z,12.30
2017-10-21T00:26:01.635Z,12.40
2017-10-21T00:28:29.277Z,12.40
2017-10-21T00:30:56.893Z,12.20
2017-10-21T00:33:25.516Z,12.00
2017-10-21T00:35:53.147Z,12.10
2017-10-21T00:40:48.497Z,12.10
2017-10-21T00:43:16.124Z,12.00
2017-10-21T00:45:44.583Z,12.00
2017-10-21T00:48:12.269Z,12.00
2017-10-21T00:55:46.676Z,11.90
2017-10-21T00:58:14.301Z,12.00
2017-10-21T01:00:41.935Z,11.90
2017-10-21T01:03:09.629Z,11.90
2017-10-21T01:05:37.256Z,12.00
2017-10-21T01:08:04.900Z,11.90
2017-10-21T01:10:32.598Z,11.90
2017-10-21T01:15:27.863Z,11.70
2017-10-21T01:17:55.566Z,11.60
2017-10-21T01:22:50.822Z,11.40
2017-10-21T01:25:18.529Z,11.50
2017-10-21T01:27:46.168Z,11.50
2017-10-21T01:30:13.789Z,11.60
2017-10-21T01:32:41.518Z,11.70
2017-10-21T01:35:09.150Z,11.70
2017-10-21T01:37:36.787Z,11.60
2017-10-21T01:40:04.486Z,11.50
2017-10-21T01:42:32.127Z,11.50
2017-10-21T01:44:59.764Z,11.40
2017-10-21T01:47:27.461Z,11.20
2017-10-21T01:49:55.105Z,11.00
2017-10-21T01:52:22.746Z,11.00
2017-10-21T01:54:50.463Z,11.10
2017-10-21T01:57:18.083Z,11.10
2017-10-21T01:59:45.715Z,11.20
2017-10-21T02:02:13.440Z,11.30
2017-10-21T02:04:41.069Z,11.30
2017-10-21T02:07:08.697Z,11.30
2017-10-21T02:09:36.381Z,11.20
2017-10-21T02:12:04.011Z,11.30
2017-10-21T02:14:32.577Z,11.30
2017-10-21T02:22:07.071Z,11.30
2017-10-21T02:24:34.712Z,11.40
2017-10-21T02:27:02.334Z,11.50
2017-10-21T02:29:30.749Z,11.50
2017-10-21T02:31:58.379Z,11.40
2017-10-21T02:34:25.998Z,11.40
2017-10-21T02:36:53.675Z,11.40
2017-10-21T02:39:21.301Z,11.40
2017-10-21T02:41:48.928Z,11.40
2017-10-21T02:44:16.617Z,11.40
2017-10-21T02:46:44.248Z,11.40
2017-10-21T02:51:39.562Z,11.20
2017-10-21T02:54:07.185Z,11.10
2017-10-21T02:56:34.807Z,11.10
2017-10-21T02:59:02.506Z,11.10
2017-10-21T03:01:30.122Z,11.10
2017-10-21T03:03:57.748Z,11.00
2017-10-21T03:06:25.436Z,11.00
2017-10-21T03:11:20.676Z,11.00
2017-10-21T03:13:48.357Z,11.10
2017-10-21T03:16:15.984Z,11.10
2017-10-21T03:18:43.603Z,11.00
2017-10-21T03:21:11.309Z,11.00
2017-10-21T03:23:38.937Z,11.00
2017-10-21T03:26:06.564Z,11.00
2017-10-21T03:28:34.255Z,11.10
2017-10-21T03:31:02.816Z,10.90
2017-10-21T03:33:30.445Z,11.00
2017-10-21T03:35:58.154Z,11.00
2017-10-21T03:38:25.794Z,11.10
2017-10-21T03:40:53.425Z,11.10
2017-10-21T03:43:21.138Z,10.90
2017-10-21T03:45:48.772Z,10.70
2017-10-21T03:50:55.556Z,10.70
2017-10-21T03:53:23.181Z,10.80
2017-10-21T03:55:50.810Z,10.90
2017-10-21T03:58:18.484Z,11.00
2017-10-21T04:00:46.104Z,11.00
2017-10-21T04:03:13.729Z,11.10
2017-10-21T04:05:41.415Z,11.10
2017-10-21T04:08:09.044Z,10.90
2017-10-21T04:10:36.673Z,10.90
2017-10-21T04:13:04.346Z,10.80
2017-10-21T04:15:31.972Z,10.80
2017-10-21T04:17:59.601Z,10.80
2017-10-21T04:20:27.300Z,10.90
2017-10-21T04:22:54.927Z,10.80
2017-10-21T04:25:22.552Z,10.80
2017-10-21T04:27:50.235Z,10.70
2017-10-21T04:30:17.860Z,10.60
2017-10-21T04:32:45.485Z,10.50
2017-10-21T04:35:13.215Z,10.60
2017-10-21T04:37:40.841Z,10.60
2017-10-21T04:40:08.477Z,10.60
2017-10-21T04:42:36.162Z,10.70
2017-10-21T04:47:31.421Z,10.80
2017-10-21T04:49:59.120Z,10.80
2017-10-21T04:52:26.756Z,10.80
2017-10-21T04:54:54.392Z,10.80
2017-10-21T04:57:22.097Z,10.90
2017-10-21T04:59:50.672Z,11.00
2017-10-21T05:02:19.245Z,11.00
2017-10-21T05:04:46.924Z,10.90
2017-10-21T05:07:15.505Z,10.80
2017-10-21T05:09:43.129Z,10.90
2017-10-21T05:12:10.825Z,10.70
2017-10-21T05:17:17.623Z,10.70
2017-10-21T05:19:45.250Z,10.80
2017-10-21T05:22:12.880Z,10.90
2017-10-21T05:24:40.564Z,11.00
2017-10-21T05:27:08.211Z,11.00
2017-10-21T05:29:35.837Z,11.10
2017-10-21T05:32:03.549Z,10.80
2017-10-21T05:34:31.173Z,10.50
2017-10-21T05:39:26.485Z,10.30
2017-10-21T05:41:54.108Z,10.30
2017-10-21T05:44:21.737Z,10.30
2017-10-21T05:46:49.434Z,10.40
2017-10-21T05:49:17.059Z,10.40
2017-10-21T05:51:44.738Z,10.20
2017-10-21T05:54:12.368Z,10.30
2017-10-21T05:56:40.004Z,10.40
2017-10-21T05:59:07.634Z,10.50
2017-10-21T06:01:36.273Z,10.50
2017-10-21T06:04:03.906Z,10.40
2017-10-21T06:06:31.535Z,10.40
2017-10-21T06:08:59.245Z,10.60
2017-10-21T06:13:54.499Z,10.70
2017-10-21T06:16:22.218Z,10.80
2017-10-21T06:21:17.479Z,10.90
2017-10-21T06:23:45.203Z,10.80
2017-10-21T06:28:41.311Z,10.70
2017-10-21T06:33:48.121Z,10.80
2017-10-21T06:36:15.820Z,10.90
2017-10-21T06:38:43.465Z,10.80
2017-10-21T06:43:39.816Z,11.00
2017-10-21T06:46:07.457Z,11.10
2017-10-21T06:48:35.120Z,11.00
2017-10-21T06:53:30.465Z,10.70
2017-10-21T06:55:58.102Z,10.80
2017-10-21T07:00:53.437Z,10.60
2017-10-21T07:03:21.073Z,10.50
2017-10-21T07:08:16.410Z,10.60
2017-10-21T07:10:44.074Z,10.70
2017-10-21T07:13:11.791Z,10.90
2017-10-21T07:15:40.396Z,10.90
2017-10-21T07:18:08.029Z,11.00
2017-10-21T07:20:35.714Z,11.10
2017-10-21T07:23:03.352Z,11.20
2017-10-21T07:25:30.980Z,11.30
2017-10-21T07:27:58.663Z,11.40
2017-10-21T07:30:26.287Z,11.50
2017-10-21T07:32:54.955Z,11.60
2017-10-21T07:35:22.647Z,11.60
2017-10-21T07:37:50.300Z,11.70
2017-10-21T07:40:17.950Z,11.70
2017-10-21T07:45:26.228Z,11.80
2017-10-21T07:47:53.940Z,11.70
2017-10-21T07:50:21.580Z,11.60
2017-10-21T07:52:49.207Z,11.70
2017-10-21T07:55:16.892Z,11.70
2017-10-21T07:57:45.345Z,11.80
2017-10-21T08:00:12.972Z,11.70
2017-10-21T08:02:40.665Z,11.80
2017-10-21T08:05:08.332Z,11.90
2017-10-21T08:07:35.947Z,12.00
2017-10-21T08:10:04.459Z,12.00
2017-10-21T08:12:32.097Z,12.00
2017-10-21T08:14:59.727Z,11.90
2017-10-21T08:19:55.046Z,12.00
2017-10-21T08:22:22.682Z,12.10
2017-10-21T08:24:50.376Z,12.00
2017-10-21T08:27:17.991Z,11.90
2017-10-21T08:29:45.679Z,11.90
2017-10-21T08:32:13.369Z,11.90
2017-10-21T08:34:40.998Z,11.90
2017-10-21T08:37:08.633Z,12.10
2017-10-21T08:39:36.344Z,12.30
2017-10-21T08:42:04.785Z,12.30
2017-10-21T08:44:32.424Z,12.30
2017-10-21T08:47:00.103Z,12.30
2017-10-21T08:49:27.737Z,12.40
2017-10-21T08:54:34.944Z,12.20
2017-10-21T08:57:02.598Z,12.40
2017-10-21T08:59:30.239Z,12.40
2017-10-21T09:01:57.945Z,12.50
2017-10-21T09:04:25.585Z,12.50
2017-10-21T09:06:53.222Z,12.60
2017-10-21T09:09:21.760Z,12.50
2017-10-21T09:11:49.404Z,12.60
2017-10-21T09:14:17.055Z,12.60
2017-10-21T09:16:44.771Z,12.80
2017-10-21T09:19:13.367Z,13.00
2017-10-21T09:21:41.002Z,13.30
2017-10-21T09:26:36.338Z,13.40
2017-10-21T09:29:03.982Z,13.60
2017-10-21T09:33:59.368Z,13.80
2017-10-21T09:36:27.009Z,13.80
2017-10-21T09:38:55.691Z,13.90
2017-10-21T09:41:23.329Z,14.30
2017-10-21T09:43:50.972Z,14.60
2017-10-21T09:46:18.726Z,14.80
2017-10-21T09:48:46.368Z,14.90
2017-10-21T09:51:14.837Z,15.10
2017-10-21T11:27:35.955Z,18.30
2017-10-21T11:30:03.239Z,18.80
2017-10-21T11:32:30.889Z,18.30
2017-10-21T11:34:58.605Z,19.00
2017-10-21T11:37:26.267Z,20.20
2017-10-21T11:39:53.897Z,19.40
2017-10-21T11:42:22.563Z,19.70
2017-10-21T11:44:50.204Z,19.00
2017-10-21T11:49:57.016Z,19.20
2017-10-21T11:52:24.659Z,19.70
2017-10-21T11:54:52.294Z,19.50
2017-10-21T11:57:20.005Z,20.70
2017-10-21T11:59:47.646Z,20.60
2017-10-21T12:02:15.295Z,19.90
2017-10-21T12:04:43.050Z,20.50
2017-10-21T12:07:11.439Z,20.00
2017-10-21T12:09:39.084Z,19.80
2017-10-21T12:12:06.786Z,19.70
2017-10-21T12:14:34.433Z,19.60
2017-10-21T12:17:02.077Z,19.40
2017-10-21T12:19:29.782Z,19.50
2017-10-21T12:21:57.426Z,19.60
2017-10-21T12:24:25.065Z,19.40
2017-10-21T12:26:52.773Z,19.90
2017-10-21T12:29:20.429Z,19.70
2017-10-21T12:31:48.102Z,19.70
2017-10-21T12:34:15.792Z,19.90
2017-10-21T12:36:43.418Z,20.00
2017-10-21T12:39:11.061Z,19.90
2017-10-21T12:41:38.751Z,20.50
2017-10-21T12:44:06.376Z,20.00
2017-10-21T12:46:33.997Z,20.00
2017-10-21T12:49:02.663Z,20.20
2017-10-21T12:51:30.295Z,20.20
2017-10-21T12:53:57.933Z,20.00
2017-10-21T12:56:25.625Z,20.70
2017-10-21T12:58:53.252Z,20.40
2017-10-21T13:01:20.885Z,20.70
2017-10-21T13:03:48.568Z,20.40
2017-10-21T13:06:16.199Z,20.20
2017-10-21T13:08:43.833Z,20.60
2017-10-21T13:11:11.512Z,20.60
2017-10-21T13:18:47.950Z,20.30
2017-10-21T13:21:15.618Z,20.00
2017-10-21T13:23:43.266Z,20.20
2017-10-21T13:26:11.027Z,20.00
2017-10-21T13:28:38.708Z,20.10
2017-10-21T13:31:06.343Z,20.40
2017-10-21T13:33:34.044Z,20.70
2017-10-21T13:36:01.689Z,20.40
2017-10-21T13:38:29.330Z,20.10
2017-10-21T13:40:57.023Z,19.90
2017-10-21T13:43:24.664Z,19.80
2017-10-21T13:45:52.313Z,19.80
2017-10-21T13:48:20.011Z,19.60
2017-10-21T13:50:47.650Z,19.50
2017-10-21T13:53:15.290Z,19.80
2017-10-21T13:55:43.004Z,19.60
2017-10-21T13:58:10.650Z,19.50
2017-10-21T14:00:38.291Z,19.60
2017-10-21T14:03:06.935Z,19.80
2017-10-21T14:05:34.578Z,19.60
2017-10-21T14:10:29.922Z,19.60
2017-10-21T14:12:57.568Z,19.50
2017-10-21T14:17:52.922Z,19.50
2017-10-21T14:20:20.578Z,19.50
2017-10-21T14:22:49.161Z,19.60
2017-10-21T14:25:17.842Z,19.70
2017-10-21T14:27:45.490Z,19.70
2017-10-21T14:30:13.674Z,19.60
2017-10-21T14:32:41.379Z,19.70
2017-10-21T14:35:09.026Z,19.60
2017-10-21T14:37:36.669Z,19.30
2017-10-21T14:40:04.381Z,19.20
2017-10-21T14:42:32.022Z,19.20
2017-10-21T14:47:38.842Z,19.10
2017-10-21T14:52:34.132Z,19.10
2017-10-21T14:55:01.840Z,19.00
2017-10-21T14:57:29.478Z,19.00
2017-10-21T14:59:57.132Z,18.90
2017-10-21T15:02:24.833Z,19.10
2017-10-21T15:04:52.484Z,19.20
2017-10-21T15:07:20.145Z,19.10
2017-10-21T15:09:47.861Z,19.20
2017-10-21T15:12:15.505Z,19.10
2017-10-21T15:14:43.167Z,19.00
2017-10-21T15:17:10.883Z,19.00
2017-10-21T15:19:38.544Z,19.10
2017-10-21T15:22:06.205Z,19.20
2017-10-21T15:24:33.916Z,19.30
2017-10-21T15:27:01.578Z,19.40
2017-10-21T15:29:29.248Z,19.50
2017-10-21T15:31:57.938Z,19.50
2017-10-21T15:34:25.594Z,19.60
2017-10-21T15:36:53.257Z,19.50
2017-10-21T15:39:21.807Z,19.50
2017-10-21T15:41:49.447Z,19.50
2017-10-21T15:44:17.100Z,19.40
2017-10-21T15:46:44.806Z,19.40
2017-10-21T15:49:13.357Z,19.40
2017-10-21T15:51:41.778Z,19.30
2017-10-21T15:54:09.493Z,19.20
2017-10-21T15:56:37.242Z,19.10
2017-10-21T15:59:05.739Z,19.10
2017-10-21T16:01:33.460Z,19.00
2017-10-21T16:04:01.211Z,18.90
2017-10-21T16:06:28.925Z,18.80
2017-10-21T16:08:57.671Z,18.70
2017-10-21T16:11:25.311Z,18.60
2017-10-21T16:16:34.013Z,18.50
2017-10-21T16:19:02.489Z,18.50
2017-10-21T16:21:30.150Z,18.50
2017-10-21T16:23:57.866Z,18.40
2017-10-21T16:28:53.160Z,18.30
2017-10-21T16:31:21.048Z,18.20
2017-10-21T16:33:49.579Z,18.10
2017-10-21T16:36:18.099Z,17.90
2017-10-21T16:38:46.690Z,17.90
2017-10-21T16:41:14.398Z,17.80
2017-10-21T16:43:43.052Z,17.70
2017-10-21T16:48:38.574Z,17.60
2017-10-21T16:51:06.203Z,17.40
2017-10-21T16:53:33.941Z,17.10
2017-10-21T16:56:01.619Z,17.00
2017-10-21T16:58:29.288Z,16.80
2017-10-21T17:00:57.752Z,16.60
2017-10-21T17:03:25.506Z,16.30
2017-10-21T17:05:53.149Z,16.20
2017-10-21T17:08:20.867Z,16.20
2017-10-21T17:10:48.532Z,16.20
2017-10-21T17:13:16.161Z,16.30
2017-10-21T17:15:43.868Z,16.10
2017-10-21T17:18:11.526Z,16.10
2017-10-21T17:20:39.180Z,16.00
2017-10-21T17:25:34.540Z,16.10
2017-10-21T17:28:03.013Z,16.00
2017-10-21T17:30:30.736Z,16.20
2017-10-21T17:35:37.673Z,16.20
2017-10-21T17:38:05.852Z,16.00
2017-10-21T17:40:40.290Z,15.80
2017-10-21T17:43:08.220Z,15.80
2017-10-21T17:45:35.847Z,15.80
2017-10-21T17:48:04.393Z,15.90
2017-10-21T17:50:32.043Z,15.60
2017-10-21T17:52:59.667Z,15.60
2017-10-21T17:55:27.346Z,15.50
2017-10-21T17:57:54.989Z,15.60
2017-10-21T18:02:50.300Z,15.70
2017-10-21T18:05:17.947Z,15.60
2017-10-21T18:07:45.589Z,15.60
2017-10-21T18:10:13.275Z,15.60
2017-10-21T18:12:40.916Z,15.50
2017-10-21T18:15:08.566Z,15.40
2017-10-21T18:17:36.236Z,15.40
2017-10-21T18:20:03.895Z,15.10
2017-10-21T18:22:31.535Z,15.00
2017-10-21T18:24:59.215Z,15.10
2017-10-21T18:27:26.890Z,15.00
2017-10-21T18:29:54.499Z,15.00
2017-10-21T18:32:22.179Z,15.00
2017-10-21T18:34:49.813Z,14.80
2017-10-21T18:37:17.498Z,14.90
2017-10-21T18:39:45.179Z,14.60
2017-10-21T18:42:13.142Z,14.70
2017-10-21T18:44:40.759Z,14.80
2017-10-21T18:47:08.452Z,14.90
2017-10-21T18:49:36.109Z,14.90
2017-10-21T18:52:03.753Z,14.80
2017-10-21T18:54:31.466Z,14.80
2017-10-21T18:56:59.160Z,14.90
2017-10-21T19:02:06.013Z,14.60
2017-10-21T19:04:33.616Z,14.80
2017-10-21T19:07:01.263Z,14.70
2017-10-21T19:11:56.596Z,14.30
2017-10-21T19:14:24.226Z,14.30
2017-10-21T19:19:19.656Z,14.20
2017-10-21T19:21:47.287Z,14.20
2017-10-21T19:24:15.015Z,14.10
2017-10-21T19:26:42.634Z,14.10
2017-10-21T19:29:10.272Z,14.20
2017-10-21T19:31:38.026Z,14.30
2017-10-21T19:34:05.623Z,14.20
2017-10-21T19:36:33.256Z,14.20
2017-10-21T19:39:00.941Z,14.30
2017-10-21T19:43:56.209Z,14.50
2017-10-21T19:46:23.908Z,14.40
2017-10-21T19:48:51.509Z,14.50
2017-10-21T19:51:19.164Z,14.40
2017-10-21T19:53:46.856Z,14.40
2017-10-21T19:56:14.479Z,14.10
2017-10-21T19:58:42.105Z,13.90
2017-10-21T20:01:09.803Z,14.00
2017-10-21T20:03:37.428Z,14.00
2017-10-21T20:06:05.060Z,14.00
2017-10-21T20:08:32.736Z,13.80
2017-10-21T20:11:00.367Z,13.80
2017-10-21T20:13:27.995Z,13.80
2017-10-21T20:15:55.674Z,13.60
2017-10-21T20:18:23.335Z,13.30
2017-10-21T20:20:50.964Z,13.40
2017-10-21T20:25:57.784Z,13.50
2017-10-21T20:28:25.489Z,13.60
2017-10-21T20:30:53.147Z,13.70
2017-10-21T20:33:20.785Z,13.80
2017-10-21T20:35:48.488Z,13.50
2017-10-21T20:38:16.123Z,13.40
2017-10-21T20:40:43.800Z,13.30
2017-10-21T20:43:11.478Z,13.40
2017-10-21T20:45:39.108Z,13.40
2017-10-21T20:48:07.098Z,13.30
2017-10-21T20:50:35.102Z,13.30
2017-10-21T20:53:02.931Z,13.20
2017-10-21T20:55:30.817Z,12.90
2017-10-21T20:57:58.815Z,12.90
2017-10-21T21:00:26.869Z,13.00
2017-10-21T21:02:54.748Z,13.00
2017-10-21T21:11:14.252Z,12.90
2017-10-21T21:13:41.925Z,13.00
2017-10-21T21:16:09.618Z,12.90
2017-10-21T21:18:37.380Z,12.70
2017-10-21T21:21:05.041Z,12.60
2017-10-21T21:23:36.815Z,12.40
2017-10-21T21:26:04.519Z,12.50
2017-10-21T21:28:32.188Z,12.60
2017-10-21T21:30:59.818Z,12.40
2017-10-21T21:33:27.512Z,12.30
2017-10-21T21:35:55.144Z,12.20
2017-10-21T21:38:22.807Z,12.30
2017-10-21T21:40:50.487Z,12.30
2017-10-21T21:43:18.118Z,12.30
2017-10-21T21:45:46.903Z,12.60
2017-10-21T21:48:15.455Z,12.60
2017-10-21T21:50:43.975Z,12.50
2017-10-21T21:53:11.608Z,12.30
2017-10-21T21:55:39.310Z,12.20
2017-10-21T21:58:07.059Z,12.20
2017-10-21T22:00:34.712Z,12.30
2017-10-21T22:03:02.498Z,12.30
2017-10-21T22:05:30.123Z,12.20
2017-10-21T22:07:57.774Z,12.20
2017-10-21T22:10:26.320Z,12.30
2017-10-21T22:12:54.766Z,12.40
2017-10-21T22:15:23.384Z,12.40
2017-10-21T22:17:51.979Z,12.30
2017-10-21T22:20:20.461Z,12.30
2017-10-21T22:22:48.084Z,12.10
2017-10-21T22:25:15.767Z,11.90
2017-10-21T22:27:43.402Z,11.90
2017-10-21T22:30:11.033Z,11.90
2017-10-21T22:32:39.695Z,12.00
2017-10-21T22:37:46.482Z,11.90
2017-10-21T22:40:14.105Z,12.00
2017-10-21T22:42:41.741Z,12.10
2017-10-21T22:45:09.427Z,12.30
2017-10-21T22:47:37.052Z,12.30
2017-10-21T22:50:04.683Z,12.40
2017-10-21T22:52:32.374Z,12.40
2017-10-21T22:55:00.006Z,12.40
2017-10-21T22:57:27.639Z,12.40
2017-10-21T22:59:56.161Z,12.30
2017-10-21T23:02:23.788Z,12.30
2017-10-21T23:04:51.420Z,12.30
2017-10-21T23:07:19.108Z,12.30
2017-10-21T23:09:46.732Z,12.40
2017-10-21T23:12:14.367Z,12.40
2017-10-21T23:14:42.060Z,12.50
2017-10-21T23:17:09.702Z,12.50
2017-10-21T23:19:37.340Z,12.60
2017-10-21T23:22:05.024Z,12.60
2017-10-21T23:24:32.648Z,12.50
2017-10-21T23:27:00.276Z,12.50
2017-10-21T23:29:27.964Z,12.40
2017-10-21T23:31:55.610Z,12.50
2017-10-21T23:34:23.207Z,12.50
2017-10-21T23:36:50.944Z,12.50
2017-10-21T23:39:18.564Z,12.20
2017-10-21T23:41:46.200Z,12.20
2017-10-21T23:44:13.889Z,12.00
2017-10-21T23:46:41.532Z,12.10
2017-10-21T23:49:09.183Z,12.20
2017-10-21T23:51:36.874Z,12.30
2017-10-21T23:54:04.502Z,12.40
2017-10-21T23:56:32.140Z,12.40
